Time;durP1;ratioP1;P1;durP2;ratioP2;P2;SDS_P1;SDS_P2;PMS_P1;PMS_P2;Temp;Humidity;BMP_temperature;BMP_pressure;BME280_temperature;BME280_humidity;BME280_pressure;Samples;Min_cycle;Max_cycle;Signal;HPM_P1;HPM_P2
2020/12/18 00:00:07;;;;;;;52.93;32.90;;;7.10;77.60;;;;;;4932404;28;92676;-77
2020/12/18 00:02:33;;;;;;;48.23;31.20;;;7.10;77.50;;;;;;4919606;28;92906;-77
2020/12/18 00:05:00;;;;;;;50.63;32.53;;;7.10;77.50;;;;;;4921588;28;93363;-77
2020/12/18 00:07:26;;;;;;;54.20;34.43;;;7.10;77.60;;;;;;4921844;28;91863;-77
2020/12/18 00:09:52;;;;;;;52.17;32.87;;;7.20;77.70;;;;;;4931435;28;93501;-77
2020/12/18 00:12:19;;;;;;;50.17;31.20;;;7.20;77.70;;;;;;4908755;28;96595;-77
2020/12/18 00:14:45;;;;;;;46.53;29.87;;;7.20;77.70;;;;;;4931719;28;92083;-77
2020/12/18 00:17:11;;;;;;;45.20;29.73;;;7.20;77.80;;;;;;4928888;28;92245;-77
2020/12/18 00:19:36;;;;;;;44.90;30.57;;;7.30;77.80;;;;;;4939125;28;92941;-77
2020/12/18 00:22:02;;;;;;;42.53;28.30;;;7.30;77.70;;;;;;4936769;28;95022;-77
2020/12/18 00:24:28;;;;;;;40.87;28.03;;;7.30;77.70;;;;;;4927119;28;92196;-77
2020/12/18 00:26:54;;;;;;;40.77;28.30;;;7.30;77.70;;;;;;4917147;28;92398;-77
2020/12/18 00:29:20;;;;;;;40.20;26.63;;;7.30;77.80;;;;;;4917097;28;94269;-78
2020/12/18 00:31:46;;;;;;;34.57;24.23;;;7.30;77.80;;;;;;4921169;28;94216;-77
2020/12/18 00:34:11;;;;;;;32.50;22.40;;;7.30;77.90;;;;;;4931057;28;92406;-76
2020/12/18 00:36:37;;;;;;;35.73;23.33;;;7.30;77.90;;;;;;4934285;28;92630;-77
2020/12/18 00:39:06;;;;;;;34.20;23.90;;;7.40;78.00;;;;;;4921749;28;92435;-76
2020/12/18 00:41:32;;;;;;;33.30;23.40;;;7.40;77.90;;;;;;4923797;28;92728;-76
2020/12/18 00:43:59;;;;;;;32.33;21.57;;;7.40;77.70;;;;;;4932420;28;91962;-76
2020/12/18 00:46:25;;;;;;;30.47;21.37;;;7.50;77.80;;;;;;4937048;28;91973;-77
2020/12/18 00:48:51;;;;;;;34.30;22.67;;;7.40;77.70;;;;;;4941034;28;92769;-77
2020/12/18 00:51:17;;;;;;;30.30;21.20;;;7.50;77.70;;;;;;4939518;28;96381;-76
2020/12/18 00:53:45;;;;;;;32.10;22.43;;;7.50;77.70;;;;;;4938674;28;93117;-76
2020/12/18 00:56:11;;;;;;;29.20;22.03;;;7.50;77.60;;;;;;4925747;28;92240;-77
2020/12/18 00:58:44;;;;;;;27.43;19.70;;;7.50;77.60;;;;;;4922720;28;96142;-76
2020/12/18 01:01:11;;;;;;;29.47;20.57;;;7.50;77.60;;;;;;4937948;28;95802;-76
2020/12/18 01:03:38;;;;;;;29.13;21.20;;;7.50;77.70;;;;;;4922416;28;92703;-76
2020/12/18 01:06:11;;;;;;;25.93;20.30;;;7.50;77.60;;;;;;4921994;28;92072;-76
2020/12/18 01:08:43;;;;;;;31.60;22.83;;;7.50;77.60;;;;;;4919355;28;95537;-76
2020/12/18 01:11:13;;;;;;;28.53;20.37;;;7.60;77.70;;;;;;4919978;28;94902;-76
2020/12/18 01:13:39;;;;;;;26.97;19.80;;;7.60;77.60;;;;;;4919378;28;92086;-76
2020/12/18 01:16:12;;;;;;;29.07;21.03;;;7.50;77.70;;;;;;4920490;28;92140;-76
2020/12/18 01:18:41;;;;;;;29.90;22.97;;;7.60;77.70;;;;;;4949677;28;96956;-77
2020/12/18 01:21:07;;;;;;;28.75;21.65;;;7.60;77.50;;;;;;4939322;28;97646;-76
2020/12/18 01:23:36;;;;;;;26.40;19.27;;;7.60;77.40;;;;;;4954504;28;92370;-77
2020/12/18 01:26:07;;;;;;;25.35;18.80;;;7.70;77.40;;;;;;4939846;28;92032;-76
2020/12/18 01:28:33;;;;;;;30.03;21.47;;;7.70;77.40;;;;;;4938629;28;96833;-77
2020/12/18 01:30:59;;;;;;;26.40;19.23;;;7.60;77.30;;;;;;4939238;28;96364;-76
2020/12/18 01:33:26;;;;;;;27.63;20.20;;;7.70;77.40;;;;;;4922319;28;92129;-76
2020/12/18 01:35:52;;;;;;;28.23;20.73;;;7.70;77.40;;;;;;4940001;28;91474;-76
2020/12/18 01:38:18;;;;;;;28.63;21.93;;;7.70;77.30;;;;;;4936145;28;96590;-76
2020/12/18 01:40:47;;;;;;;27.17;20.73;;;7.70;77.40;;;;;;4904123;28;96262;-76
2020/12/18 01:43:14;;;;;;;24.83;19.27;;;7.60;77.40;;;;;;4919321;28;93495;-76
2020/12/18 01:45:44;;;;;;;25.77;19.20;;;7.60;77.40;;;;;;4919466;28;92192;-76
2020/12/18 01:48:12;;;;;;;25.47;19.83;;;7.70;77.40;;;;;;4936951;28;96877;-76
2020/12/18 01:51:01;;;;;;;26.70;20.03;;;7.70;77.40;;;;;;4929598;28;94248;-77
2020/12/18 01:53:30;;;;;;;26.83;19.63;;;7.70;77.30;;;;;;4919654;28;92569;-77
2020/12/18 01:56:14;;;;;;;26.87;19.90;;;7.70;77.30;;;;;;4924644;28;92139;-77
2020/12/18 01:58:44;;;;;;;25.43;18.90;;;7.70;77.10;;;;;;4908032;28;96874;-77
2020/12/18 02:01:16;;;;;;;26.17;18.63;;;7.70;77.10;;;;;;4923145;28;94059;-76
2020/12/18 02:03:55;;;;;;;26.50;19.17;;;7.70;77.10;;;;;;4926022;28;92599;-77
2020/12/18 02:06:33;;;;;;;25.57;19.03;;;7.70;77.20;;;;;;4933664;28;92167;-77
2020/12/18 02:09:09;;;;;;;25.23;18.50;;;7.80;77.00;;;;;;4923323;28;98004;-76
2020/12/18 02:11:45;;;;;;;25.87;18.87;;;7.70;77.20;;;;;;4938390;28;97995;-77
2020/12/18 02:14:16;;;;;;;22.08;16.83;;;7.70;77.30;;;;;;4939972;28;92588;-76
2020/12/18 02:16:48;;;;;;;24.87;16.63;;;7.70;77.30;;;;;;4922455;28;92075;-77
2020/12/18 02:19:26;;;;;;;25.20;18.13;;;7.60;77.50;;;;;;4945932;28;97828;-77
2020/12/18 02:21:52;;;;;;;23.13;17.70;;;7.60;77.60;;;;;;4941825;28;96881;-76
2020/12/18 02:24:27;;;;;;;25.63;19.03;;;7.60;77.70;;;;;;4949870;28;92590;-76
2020/12/18 02:26:56;;;;;;;26.27;19.10;;;7.60;77.80;;;;;;4923135;28;91968;-76
2020/12/18 02:29:22;;;;;;;22.90;17.27;;;7.60;77.70;;;;;;4922175;28;95778;-77
2020/12/18 02:32:01;;;;;;;21.00;15.90;;;7.60;77.60;;;;;;4935802;28;94539;-76
2020/12/18 02:34:41;;;;;;;21.52;17.35;;;7.50;77.40;;;;;;4908209;28;92961;-76
2020/12/18 02:37:15;;;;;;;20.70;15.93;;;7.50;77.60;;;;;;4922740;28;92920;-76
2020/12/18 02:39:41;;;;;;;24.13;17.63;;;7.60;77.40;;;;;;4934613;28;92332;-77
2020/12/18 02:42:15;;;;;;;24.90;18.13;;;7.60;77.80;;;;;;4931334;28;95584;-76
2020/12/18 02:44:46;;;;;;;22.35;17.67;;;7.60;77.20;;;;;;4937976;28;91980;-76
2020/12/18 02:47:35;;;;;;;21.47;16.27;;;7.60;77.20;;;;;;4923954;28;91931;-77
2020/12/18 02:50:06;;;;;;;21.70;16.58;;;7.60;77.10;;;;;;4928929;28;97063;-77
2020/12/18 02:53:18;;;;;;;23.30;17.40;;;7.50;77.20;;;;;;4939657;28;94454;-76
2020/12/18 02:56:01;;;;;;;25.63;18.40;;;7.50;77.60;;;;;;4942191;28;92174;-77
2020/12/18 02:58:43;;;;;;;24.77;17.73;;;7.40;77.90;;;;;;4941794;28;92685;-76
2020/12/18 03:01:10;;;;;;;23.67;17.27;;;7.40;78.10;;;;;;4923848;28;97482;-76
2020/12/18 03:03:36;;;;;;;24.03;16.23;;;7.40;78.20;;;;;;4940146;28;93925;-76
2020/12/18 03:06:22;;;;;;;24.83;17.73;;;7.30;78.20;;;;;;4939216;28;92039;-75
2020/12/18 03:08:51;;;;;;;24.00;18.43;;;7.30;78.20;;;;;;4938456;28;92129;-76
2020/12/18 03:11:17;;;;;;;22.50;15.50;;;7.30;78.40;;;;;;4937707;28;96790;-76
2020/12/18 03:13:44;;;;;;;22.97;17.07;;;7.20;78.50;;;;;;4937066;28;96815;-76
2020/12/18 03:16:12;;;;;;;19.30;15.30;;;7.20;78.60;;;;;;4938293;28;92038;-76
2020/12/18 03:19:06;;;;;;;19.20;15.30;;;7.20;78.50;;;;;;4930154;28;91776;-76
2020/12/18 03:21:32;;;;;;;19.43;15.03;;;7.20;78.40;;;;;;4937644;28;93698;-76
2020/12/18 03:24:17;;;;;;;21.87;15.07;;;7.20;78.30;;;;;;4930905;28;92059;-76
2020/12/18 03:26:56;;;;;;;20.50;15.87;;;7.20;78.20;;;;;;4939155;28;93214;-76
2020/12/18 03:29:29;;;;;;;22.47;16.30;;;7.20;78.80;;;;;;4938884;28;92196;-76
2020/12/18 03:31:56;;;;;;;17.98;14.25;;;7.20;78.20;;;;;;4939137;28;96479;-76
2020/12/18 03:34:24;;;;;;;19.90;14.73;;;7.10;78.10;;;;;;4955870;28;96140;-75
2020/12/18 03:36:56;;;;;;;17.53;14.87;;;7.10;78.10;;;;;;4940174;28;92108;-76
2020/12/18 03:39:22;;;;;;;21.13;15.70;;;7.20;78.00;;;;;;4940236;28;92118;-76
2020/12/18 03:42:14;;;;;;;19.75;14.48;;;7.20;77.70;;;;;;4924193;28;94743;-76
2020/12/18 03:44:40;;;;;;;20.17;14.80;;;7.20;77.50;;;;;;4905996;28;96989;-76
2020/12/18 03:47:06;;;;;;;17.53;14.77;;;7.20;77.40;;;;;;4918365;28;92079;-75
2020/12/18 03:50:08;;;;;;;18.57;14.73;;;7.20;77.50;;;;;;4902341;28;92889;-76
2020/12/18 03:52:35;;;;;;;18.17;14.23;;;7.20;77.70;;;;;;4916422;28;97887;-75
2020/12/18 03:55:01;;;;;;;17.00;13.60;;;7.20;77.50;;;;;;4917978;28;97955;-76
2020/12/18 03:58:00;;;;;;;18.50;13.43;;;7.20;77.40;;;;;;4876520;28;93478;-75
2020/12/18 04:00:41;;;;;;;19.60;14.20;;;7.20;78.00;;;;;;4917616;28;92226;-76
2020/12/18 04:03:08;;;;;;;19.77;15.50;;;7.20;77.30;;;;;;4918167;28;95275;-76
2020/12/18 04:05:35;;;;;;;19.40;14.00;;;7.20;77.20;;;;;;4934005;28;95821;-76
2020/12/18 04:08:03;;;;;;;17.77;14.57;;;7.10;77.00;;;;;;4943789;28;92522;-76
2020/12/18 04:10:55;;;;;;;18.92;13.82;;;7.10;77.20;;;;;;4912667;28;91431;-76
2020/12/18 04:13:40;;;;;;;18.33;12.97;;;7.10;77.10;;;;;;4942820;28;92477;-76
2020/12/18 04:16:07;;;;;;;20.43;14.27;;;7.00;76.90;;;;;;4942091;28;95289;-76
2020/12/18 04:18:33;;;;;;;21.30;14.53;;;7.00;76.90;;;;;;4939576;28;92784;-76
2020/12/18 04:21:00;;;;;;;19.90;14.47;;;7.00;76.90;;;;;;4940862;28;92312;-76
2020/12/18 04:23:36;;;;;;;25.70;14.70;;;6.90;76.80;;;;;;4937416;28;93455;-76
2020/12/18 04:26:12;;;;;;;24.17;14.97;;;6.90;76.80;;;;;;4921708;28;96738;-76
2020/12/18 04:28:39;;;;;;;25.70;14.87;;;6.90;76.80;;;;;;4916284;28;92323;-76
2020/12/18 04:31:08;;;;;;;22.33;14.53;;;6.80;77.00;;;;;;4916769;28;92350;-76
2020/12/18 04:33:35;;;;;;;23.37;15.07;;;6.80;77.00;;;;;;4933501;28;96347;-76
2020/12/18 04:36:01;;;;;;;18.80;14.17;;;6.70;77.10;;;;;;4912002;28;96544;-76
2020/12/18 04:38:31;;;;;;;22.60;14.27;;;6.70;77.20;;;;;;4950059;28;92022;-76
2020/12/18 04:41:08;;;;;;;19.10;13.27;;;6.60;77.30;;;;;;4905946;28;92414;-76
2020/12/18 04:43:44;;;;;;;18.50;13.53;;;6.60;77.90;;;;;;4919460;28;97564;-76
2020/12/18 04:46:18;;;;;;;19.53;13.00;;;6.50;77.40;;;;;;4935736;28;97839;-76
2020/12/18 04:48:47;;;;;;;23.20;14.37;;;6.50;77.40;;;;;;4919575;28;92029;-76
2020/12/18 04:51:22;;;;;;;18.63;13.70;;;6.50;77.50;;;;;;4919099;28;92548;-76
2020/12/18 04:53:56;;;;;;;18.17;13.67;;;6.50;77.20;;;;;;4917068;28;96179;-76
2020/12/18 04:56:34;;;;;;;21.60;14.90;;;6.50;77.10;;;;;;4916421;28;96897;-76
2020/12/18 04:59:07;;;;;;;29.97;16.80;;;6.50;77.30;;;;;;4901853;28;92054;-76
2020/12/18 05:01:47;;;;;;;38.38;17.60;;;6.60;77.10;;;;;;4915872;28;91789;-76
2020/12/18 05:04:19;;;;;;;30.23;17.63;;;6.50;76.70;;;;;;4916686;28;94582;-76
2020/12/18 05:06:53;;;;;;;33.17;17.70;;;6.50;76.80;;;;;;4904180;28;96308;-76
2020/12/18 05:09:31;;;;;;;31.17;18.10;;;6.50;77.00;;;;;;4905421;28;92877;-76
2020/12/18 05:12:03;;;;;;;30.17;16.70;;;6.40;76.80;;;;;;4921144;28;91945;-76
2020/12/18 05:14:29;;;;;;;28.33;16.17;;;6.40;77.00;;;;;;4921469;28;97178;-76
2020/12/18 05:17:09;;;;;;;30.70;18.03;;;6.40;77.00;;;;;;4924494;28;96330;-76
2020/12/18 05:19:41;;;;;;;28.23;16.13;;;6.30;77.10;;;;;;4939397;28;92030;-75
2020/12/18 05:22:26;;;;;;;26.57;16.27;;;6.30;77.30;;;;;;4938573;28;92017;-76
2020/12/18 05:25:18;;;;;;;22.50;14.53;;;6.20;77.30;;;;;;4926682;28;92748;-76
2020/12/18 05:27:49;;;;;;;;;;;6.20;77.50;;;;;;4936470;28;92897;-75
2020/12/18 05:30:21;;;;;;;24.47;14.63;;;6.10;77.60;;;;;;4937477;28;92123;-76
2020/12/18 05:33:07;;;;;;;24.48;14.98;;;6.10;77.70;;;;;;4933187;28;92418;-75
2020/12/18 05:35:54;;;;;;;23.40;15.03;;;6.10;77.90;;;;;;4925775;28;94780;-75
2020/12/18 05:38:24;;;;;;;25.83;17.23;;;6.10;77.90;;;;;;4935113;28;98044;-76
2020/12/18 05:41:10;;;;;;;24.33;15.90;;;6.00;77.80;;;;;;4936917;28;92257;-76
2020/12/18 05:43:48;;;;;;;23.20;15.77;;;6.00;78.00;;;;;;4938536;28;92033;-75
2020/12/18 05:46:39;;;;;;;21.67;16.20;;;6.00;78.00;;;;;;4925489;28;93024;-76
2020/12/18 05:49:13;;;;;;;19.77;13.73;;;6.00;78.00;;;;;;4938264;28;96585;-76
2020/12/18 05:51:49;;;;;;;19.97;15.07;;;5.90;78.10;;;;;;4939463;28;92433;-76
2020/12/18 05:54:34;;;;;;;23.67;15.27;;;5.90;77.90;;;;;;4954900;28;91434;-76
2020/12/18 05:57:15;;;;;;;22.03;15.33;;;5.80;77.90;;;;;;4939091;28;95912;-76
2020/12/18 05:59:51;;;;;;;22.17;16.20;;;5.80;78.00;;;;;;4922543;28;93981;-76
2020/12/18 06:02:48;;;;;;;26.30;16.70;;;5.80;78.00;;;;;;4934319;28;93294;-76
2020/12/18 06:05:24;;;;;;;22.27;15.97;;;5.80;77.90;;;;;;4942368;28;92096;-76
2020/12/18 06:08:02;;;;;;;25.43;18.13;;;5.80;77.70;;;;;;4938876;28;93076;-75
2020/12/18 06:10:34;;;;;;;23.27;16.90;;;5.90;77.70;;;;;;4954253;28;96744;-76
2020/12/18 06:13:30;;;;;;;26.20;18.50;;;5.80;77.70;;;;;;4913607;28;92253;-75
2020/12/18 06:16:19;;;;;;;24.53;18.33;;;5.70;77.80;;;;;;4938340;28;92107;-76
2020/12/18 06:19:16;;;;;;;23.83;17.47;;;5.70;77.70;;;;;;4937507;28;95351;-75
2020/12/18 06:21:52;;;;;;;27.20;19.30;;;5.70;77.90;;;;;;4947994;28;95425;-76
2020/12/18 06:24:25;;;;;;;25.70;17.00;;;5.70;77.80;;;;;;4925654;28;92457;-75
2020/12/18 06:27:08;;;;;;;25.13;17.77;;;5.70;77.80;;;;;;4938482;28;92546;-75
2020/12/18 06:29:49;;;;;;;21.97;16.13;;;5.70;77.80;;;;;;4943569;28;97326;-75
2020/12/18 06:32:33;;;;;;;20.67;15.83;;;5.70;78.00;;;;;;4934423;28;93081;-76
2020/12/18 06:35:34;;;;;;;24.50;18.20;;;5.70;78.50;;;;;;4937139;28;92352;-75
2020/12/18 06:38:24;;;;;;;23.93;17.23;;;5.70;78.50;;;;;;4942979;28;92000;-76
2020/12/18 06:41:24;;;;;;;22.97;17.13;;;5.70;78.70;;;;;;4942540;28;94598;-76
2020/12/18 06:44:33;;;;;;;27.00;18.90;;;5.70;78.10;;;;;;4924957;28;92661;-76
2020/12/18 06:47:19;;;;;;;27.10;19.50;;;5.70;78.20;;;;;;4932549;28;92028;-76
2020/12/18 06:50:17;;;;;;;25.77;18.27;;;5.70;78.20;;;;;;4889840;28;91386;-76
2020/12/18 06:53:16;;;;;;;28.37;19.20;;;5.80;78.10;;;;;;4913208;28;92622;-76
2020/12/18 06:55:54;;;;;;;24.67;18.10;;;5.80;77.80;;;;;;4922088;28;96487;-76
2020/12/18 06:58:46;;;;;;;29.33;19.90;;;5.80;78.20;;;;;;4928612;28;93546;-76
2020/12/18 07:01:30;;;;;;;24.87;19.33;;;5.80;78.00;;;;;;4909918;28;92208;-76
2020/12/18 07:03:55;;;;;;;22.73;17.20;;;5.80;77.60;;;;;;4923901;28;96767;-76
2020/12/18 07:06:26;;;;;;;26.23;17.40;;;5.80;77.20;;;;;;4937334;28;95927;-76
2020/12/18 07:08:58;;;;;;;29.63;20.10;;;5.80;76.90;;;;;;4933736;28;92058;-75
2020/12/18 07:11:24;;;;;;;32.77;21.23;;;5.80;77.00;;;;;;4940036;28;91948;-75
2020/12/18 07:14:00;;;;;;;35.63;22.87;;;5.80;76.50;;;;;;4938057;28;96726;-76
2020/12/18 07:16:26;;;;;;;37.23;22.77;;;5.80;76.80;;;;;;4939193;28;93378;-76
2020/12/18 07:18:56;;;;;;;30.70;21.70;;;5.80;76.20;;;;;;4931800;28;91987;-75
2020/12/18 07:21:22;;;;;;;31.60;21.90;;;5.90;76.20;;;;;;4937976;28;92466;-76
2020/12/18 07:23:50;;;;;;;33.50;21.77;;;5.90;75.90;;;;;;4929040;28;93997;-75
2020/12/18 07:26:17;;;;;;;32.47;20.83;;;5.90;75.50;;;;;;4944260;28;97350;-76
2020/12/18 07:28:43;;;;;;;34.90;21.90;;;5.90;75.50;;;;;;4931227;28;92157;-75
2020/12/18 07:31:22;;;;;;;34.63;21.77;;;5.90;75.50;;;;;;4939790;28;92670;-75
2020/12/18 07:33:52;;;;;;;32.10;22.20;;;6.00;75.50;;;;;;4937417;28;96469;-76
2020/12/18 07:36:19;;;;;;;33.57;22.57;;;6.00;75.70;;;;;;4938104;28;96793;-75
2020/12/18 07:38:44;;;;;;;26.10;18.90;;;6.10;75.00;;;;;;4937608;28;92077;-75
2020/12/18 07:41:14;;;;;;;30.40;20.57;;;6.00;75.10;;;;;;4955007;28;91521;-75
2020/12/18 07:43:42;;;;;;;28.77;18.50;;;6.10;75.00;;;;;;4935003;28;96449;-76
2020/12/18 07:46:10;;;;;;;30.33;20.63;;;6.10;75.10;;;;;;4930876;28;96013;-75
2020/12/18 07:48:38;;;;;;;32.47;19.60;;;6.20;74.90;;;;;;4945374;28;93219;-76
2020/12/18 07:51:07;;;;;;;24.97;19.23;;;6.40;74.30;;;;;;4924305;28;92256;-76
2020/12/18 07:53:35;;;;;;;23.47;18.80;;;6.60;73.70;;;;;;4929469;28;96151;-76
2020/12/18 07:56:03;;;;;;;26.07;17.63;;;6.80;72.60;;;;;;4933321;28;92734;-76
2020/12/18 07:58:30;;;;;;;23.13;16.73;;;7.00;71.20;;;;;;4932281;28;92617;-76
2020/12/18 08:01:10;;;;;;;28.50;17.97;;;7.20;70.10;;;;;;4945891;28;92754;-76
2020/12/18 08:03:38;;;;;;;30.70;18.67;;;7.50;69.30;;;;;;4938453;28;93004;-76
2020/12/18 08:06:05;;;;;;;28.17;17.43;;;7.80;68.30;;;;;;4938873;28;91884;-76
2020/12/18 08:08:33;;;;;;;29.10;18.80;;;8.10;67.20;;;;;;4931796;28;92584;-76
2020/12/18 08:11:02;;;;;;;23.90;16.83;;;8.30;66.30;;;;;;4935237;28;92197;-76
2020/12/18 08:13:29;;;;;;;25.90;17.88;;;8.60;65.50;;;;;;4932413;28;94495;-75
2020/12/18 08:16:10;;;;;;;31.02;21.25;;;8.70;64.80;;;;;;4921625;28;97211;-75
2020/12/18 08:18:37;;;;;;;27.40;19.05;;;9.00;63.70;;;;;;4950966;28;92153;-76
2020/12/18 08:21:04;;;;;;;31.95;19.48;;;9.10;62.90;;;;;;4934796;28;92342;-76
2020/12/18 08:23:32;;;;;;;35.83;17.85;;;9.20;62.80;;;;;;4916274;28;97014;-76
2020/12/18 08:26:00;;;;;;;29.70;18.63;;;9.40;61.90;;;;;;4933367;28;96006;-76
2020/12/18 08:28:28;;;;;;;28.10;19.25;;;9.50;61.00;;;;;;4933656;28;92049;-76
2020/12/18 08:30:55;;;;;;;28.48;17.73;;;9.60;60.80;;;;;;4936015;28;91725;-76
2020/12/18 08:33:21;;;;;;;37.53;22.13;;;9.70;61.30;;;;;;4925217;28;96499;-76
2020/12/18 08:35:52;;;;;;;37.15;21.92;;;9.90;60.50;;;;;;4934814;28;94364;-76
2020/12/18 08:38:18;;;;;;;43.38;24.55;;;9.90;60.20;;;;;;4934223;28;92948;-76
2020/12/18 08:40:44;;;;;;;40.17;22.88;;;10.00;59.80;;;;;;4932101;28;92108;-76
2020/12/18 08:43:10;;;;;;;39.10;23.00;;;10.00;60.00;;;;;;4931777;28;94743;-77
2020/12/18 08:45:43;;;;;;;35.53;19.38;;;10.10;60.10;;;;;;4934051;28;96529;-76
2020/12/18 08:48:10;;;;;;;34.10;20.65;;;10.20;59.90;;;;;;4937795;28;92137;-77
2020/12/18 08:50:37;;;;;;;31.27;19.48;;;10.20;59.20;;;;;;4931145;28;93277;-76
2020/12/18 08:53:11;;;;;;;35.63;20.05;;;10.30;59.00;;;;;;4941454;28;93626;-76
2020/12/18 08:55:38;;;;;;;27.40;18.65;;;10.40;58.90;;;;;;4935727;28;92465;-76
2020/12/18 08:58:09;;;;;;;26.52;17.20;;;10.40;58.90;;;;;;4934572;28;92123;-76
2020/12/18 09:00:35;;;;;;;23.13;16.30;;;10.50;58.60;;;;;;4935193;28;92402;-76
2020/12/18 09:03:02;;;;;;;20.77;14.43;;;10.60;59.10;;;;;;4933925;28;96659;-76
2020/12/18 09:05:27;;;;;;;25.05;16.00;;;10.80;59.00;;;;;;4930940;28;97366;-76
2020/12/18 09:08:06;;;;;;;17.60;13.52;;;11.00;58.60;;;;;;4933611;28;92263;-76
2020/12/18 09:10:43;;;;;;;18.92;13.23;;;11.20;58.20;;;;;;4939077;28;92088;-77
2020/12/18 09:13:09;;;;;;;17.30;12.65;;;11.40;57.50;;;;;;4936654;28;92214;-76
2020/12/18 09:15:35;;;;;;;18.50;13.10;;;11.50;56.80;;;;;;4957630;28;92919;-77
2020/12/18 09:18:06;;;;;;;16.70;12.52;;;11.60;56.90;;;;;;4947237;28;92126;-77
2020/12/18 09:20:37;;;;;;;16.15;12.10;;;11.60;56.30;;;;;;4947141;28;91519;-77
2020/12/18 09:23:05;;;;;;;14.67;10.77;;;11.70;55.90;;;;;;4934692;28;94961;-76
2020/12/18 09:25:39;;;;;;;13.27;9.98;;;11.80;55.90;;;;;;4946298;28;95589;-76
2020/12/18 09:28:11;;;;;;;12.95;10.57;;;11.80;55.70;;;;;;4944546;28;93180;-77
2020/12/18 09:30:37;;;;;;;12.50;10.52;;;11.90;55.30;;;;;;4939287;28;92299;-77
2020/12/18 09:33:13;;;;;;;15.07;9.77;;;12.00;55.20;;;;;;4943626;28;95404;-76
2020/12/18 09:35:40;;;;;;;12.07;9.20;;;12.10;55.10;;;;;;4948681;28;93313;-77
2020/12/18 09:38:06;;;;;;;15.40;10.57;;;12.10;55.00;;;;;;4943167;28;92055;-76
2020/12/18 09:40:32;;;;;;;15.20;10.95;;;12.30;54.50;;;;;;4941218;28;92326;-77
2020/12/18 09:42:58;;;;;;;21.67;14.50;;;12.30;53.90;;;;;;4938864;28;95754;-76
2020/12/18 09:45:24;;;;;;;12.65;10.57;;;12.30;53.40;;;;;;4942851;28;96172;-77
2020/12/18 09:47:50;;;;;;;15.15;10.55;;;12.30;53.70;;;;;;4939888;28;92501;-77
2020/12/18 09:50:16;;;;;;;13.13;10.35;;;12.20;53.50;;;;;;4927828;28;92251;-77
2020/12/18 09:52:42;;;;;;;12.77;10.50;;;12.20;53.80;;;;;;4943417;28;96311;-77
2020/12/18 09:55:08;;;;;;;15.38;11.02;;;12.20;53.80;;;;;;4929793;28;97499;-76
2020/12/18 09:57:34;;;;;;;13.55;10.93;;;12.20;54.20;;;;;;4937678;28;92327;-76
2020/12/18 10:00:07;;;;;;;17.55;12.25;;;12.20;54.10;;;;;;4958852;28;92120;-76
2020/12/18 10:02:38;;;;;;;15.43;11.30;;;12.20;53.90;;;;;;4947828;28;92462;-78
2020/12/18 10:05:05;;;;;;;18.63;10.90;;;12.30;54.50;;;;;;4946280;28;93348;-76
2020/12/18 10:07:31;;;;;;;14.00;11.52;;;12.40;54.00;;;;;;4946634;28;92481;-76
2020/12/18 10:09:57;;;;;;;17.70;10.85;;;12.40;53.10;;;;;;4948901;28;92101;-77
2020/12/18 10:12:23;;;;;;;15.15;10.80;;;12.50;53.10;;;;;;4930621;28;96674;-76
2020/12/18 10:14:49;;;;;;;14.63;11.15;;;12.40;52.60;;;;;;4938974;28;93438;-76
2020/12/18 10:17:15;;;;;;;14.88;10.27;;;12.30;53.20;;;;;;4927844;28;93094;-76
2020/12/18 10:19:41;;;;;;;13.70;9.80;;;12.30;53.20;;;;;;4944630;28;92118;-77
2020/12/18 10:22:06;;;;;;;13.70;9.95;;;12.30;53.40;;;;;;4935742;28;96521;-77
2020/12/18 10:24:32;;;;;;;15.00;11.02;;;12.30;53.60;;;;;;4943346;28;95422;-77
2020/12/18 10:26:58;;;;;;;16.52;11.63;;;12.30;53.60;;;;;;4942983;28;92282;-77
2020/12/18 10:29:24;;;;;;;14.38;10.75;;;12.30;53.20;;;;;;4920589;28;92170;-76
2020/12/18 10:31:55;;;;;;;16.33;11.05;;;12.40;53.20;;;;;;4943206;28;96948;-76
2020/12/18 10:34:21;;;;;;;13.48;10.15;;;12.30;53.70;;;;;;4925111;28;96046;-76
2020/12/18 10:36:52;;;;;;;13.80;10.02;;;12.20;53.80;;;;;;4925581;28;92129;-77
2020/12/18 10:39:18;;;;;;;13.32;9.88;;;12.20;53.60;;;;;;4930030;28;92062;-77
2020/12/18 10:41:44;;;;;;;13.88;10.18;;;12.20;53.50;;;;;;4928821;28;95873;-76
2020/12/18 10:44:10;;;;;;;12.18;9.55;;;12.20;54.30;;;;;;4949254;28;93037;-76
2020/12/18 10:46:37;;;;;;;14.68;11.00;;;12.20;54.50;;;;;;4952532;28;92066;-77
2020/12/18 10:49:03;;;;;;;17.40;12.23;;;12.20;54.80;;;;;;4945750;28;92100;-78
2020/12/18 10:51:29;;;;;;;18.73;13.13;;;12.20;54.20;;;;;;4948625;28;96466;-79
2020/12/18 10:53:55;;;;;;;21.67;13.25;;;12.20;54.00;;;;;;4952192;28;94864;-78
2020/12/18 10:56:22;;;;;;;18.50;12.40;;;12.10;54.50;;;;;;4949714;28;91885;-78
2020/12/18 10:58:48;;;;;;;23.73;16.17;;;12.10;54.20;;;;;;4929629;28;91424;-78
2020/12/18 11:01:18;;;;;;;33.33;24.45;;;12.00;54.20;;;;;;4942653;28;95994;-78
2020/12/18 11:03:44;;;;;;;21.67;13.15;;;11.90;54.60;;;;;;4945815;28;96304;-78
2020/12/18 11:06:10;;;;;;;23.63;13.85;;;11.80;55.20;;;;;;4937643;28;93490;-78
2020/12/18 11:08:36;;;;;;;22.92;12.90;;;11.70;55.70;;;;;;4948712;28;92733;-78
2020/12/18 11:11:02;;;;;;;17.90;12.43;;;11.70;55.50;;;;;;4948799;28;93668;-79
2020/12/18 11:13:28;;;;;;;19.23;11.75;;;11.50;55.80;;;;;;4952169;28;95363;-78
2020/12/18 11:15:54;;;;;;;18.55;12.52;;;11.50;55.90;;;;;;4950684;28;92881;-78
2020/12/18 11:18:19;;;;;;;18.10;11.85;;;11.50;56.30;;;;;;4963838;28;92313;-78
2020/12/18 11:20:45;;;;;;;18.77;12.63;;;11.50;56.00;;;;;;4956756;28;93340;-78
2020/12/18 11:23:11;;;;;;;18.38;11.77;;;11.40;56.60;;;;;;4928462;28;94880;-79
2020/12/18 11:25:37;;;;;;;20.45;11.88;;;11.30;56.60;;;;;;4939127;28;92197;-78
2020/12/18 11:28:02;;;;;;;18.80;11.50;;;11.30;56.50;;;;;;4932528;28;92212;-76
2020/12/18 11:30:28;;;;;;;18.52;11.82;;;11.20;56.50;;;;;;4937402;28;93645;-75
2020/12/18 11:32:54;;;;;;;24.27;12.85;;;11.10;57.80;;;;;;4921165;28;96847;-75
2020/12/18 11:35:20;;;;;;;21.08;12.13;;;10.80;58.50;;;;;;4938776;28;92570;-80
2020/12/18 11:37:46;;;;;;;24.92;13.80;;;10.60;59.50;;;;;;4927055;28;92132;-79
2020/12/18 11:40:12;;;;;;;23.38;13.27;;;10.50;59.70;;;;;;4949288;28;96139;-79
2020/12/18 11:42:37;;;;;;;22.63;13.82;;;10.60;59.60;;;;;;4935847;28;95352;-77
2020/12/18 11:45:04;;;;;;;23.85;13.85;;;10.60;59.70;;;;;;4936740;28;92015;-80
2020/12/18 11:47:30;;;;;;;23.52;14.05;;;10.60;60.00;;;;;;4969275;28;92084;-80
2020/12/18 11:49:55;;;;;;;24.15;14.93;;;10.60;59.60;;;;;;4927835;28;95934;-80
2020/12/18 11:52:21;;;;;;;21.77;13.90;;;10.60;59.90;;;;;;4960711;28;95103;-74
2020/12/18 11:54:47;;;;;;;20.10;13.13;;;10.50;60.60;;;;;;4948379;28;93181;-74
2020/12/18 11:57:15;;;;;;;22.63;12.88;;;10.50;60.60;;;;;;4926262;28;92174;-75
2020/12/18 11:59:41;;;;;;;22.85;13.60;;;10.50;60.60;;;;;;4922812;28;97034;-75
2020/12/18 12:02:08;;;;;;;21.00;13.15;;;10.60;60.80;;;;;;4945129;28;95586;-74
2020/12/18 12:04:34;;;;;;;21.90;13.98;;;10.60;60.60;;;;;;4936582;28;92490;-74
2020/12/18 12:07:00;;;;;;;21.90;12.95;;;10.50;60.90;;;;;;4944469;28;92558;-75
2020/12/18 12:09:26;;;;;;;20.98;13.15;;;10.40;61.30;;;;;;4943180;28;92470;-75
2020/12/18 12:11:51;;;;;;;18.48;13.05;;;10.40;61.40;;;;;;4940251;28;92310;-75
2020/12/18 12:14:17;;;;;;;22.38;13.40;;;10.40;61.20;;;;;;4937260;28;92655;-74
2020/12/18 12:16:43;;;;;;;22.95;13.77;;;10.30;61.00;;;;;;4937350;28;92341;-75
2020/12/18 12:19:09;;;;;;;21.15;13.27;;;10.20;61.70;;;;;;4937995;28;93925;-75
2020/12/18 12:21:36;;;;;;;19.92;12.88;;;10.20;62.50;;;;;;4933630;28;94453;-75
2020/12/18 12:24:03;;;;;;;20.02;12.27;;;10.20;63.00;;;;;;4927618;28;92092;-75
2020/12/18 12:26:30;;;;;;;18.27;12.20;;;10.10;63.80;;;;;;4942451;28;92215;-74
2020/12/18 12:28:56;;;;;;;20.70;12.30;;;10.00;63.90;;;;;;4942302;28;92625;-74
2020/12/18 12:31:22;;;;;;;18.00;10.68;;;10.10;64.10;;;;;;4918891;28;96007;-75
2020/12/18 12:33:49;;;;;;;15.98;10.73;;;10.00;63.90;;;;;;4929842;28;92174;-75
2020/12/18 12:36:23;;;;;;;15.43;11.40;;;10.10;64.10;;;;;;4950334;28;91710;-75
2020/12/18 12:38:49;;;;;;;17.35;12.13;;;10.00;64.30;;;;;;4939873;28;96281;-74
2020/12/18 12:41:16;;;;;;;19.63;12.25;;;10.00;64.50;;;;;;4925111;28;92630;-75
2020/12/18 12:43:42;;;;;;;18.25;11.98;;;10.00;64.70;;;;;;4936655;28;92897;-75
2020/12/18 12:46:08;;;;;;;18.55;12.73;;;10.00;64.90;;;;;;4934362;28;92080;-75
2020/12/18 12:48:34;;;;;;;22.02;13.07;;;10.00;64.90;;;;;;4936435;28;93405;-74
2020/12/18 12:51:00;;;;;;;16.92;12.05;;;10.00;64.90;;;;;;4940008;28;96705;-75
2020/12/18 12:53:26;;;;;;;20.30;12.27;;;10.00;64.70;;;;;;4936828;28;92009;-74